createdAt,value
2018-07-31T00:00:28.642Z,23.00
2018-07-31T00:01:28.629Z,23.05
2018-07-31T00:02:28.637Z,23.09
2018-07-31T00:03:28.666Z,23.05
2018-07-31T00:04:28.609Z,23.10
2018-07-31T00:05:28.599Z,23.05
2018-07-31T00:06:28.573Z,23.10
2018-07-31T00:07:28.563Z,22.98
2018-07-31T00:08:28.570Z,23.02
2018-07-31T00:09:28.588Z,22.95
2018-07-31T00:10:28.584Z,22.91
2018-07-31T00:11:28.528Z,22.94
2018-07-31T00:12:28.531Z,22.88
2018-07-31T00:13:28.502Z,22.92
2018-07-31T00:14:28.495Z,22.91
2018-07-31T00:15:28.500Z,22.95
2018-07-31T00:16:28.471Z,22.90
2018-07-31T00:17:28.466Z,22.92
2018-07-31T00:18:28.456Z,22.88
2018-07-31T00:19:28.456Z,22.82
2018-07-31T00:20:28.457Z,22.88
2018-07-31T00:21:28.443Z,22.83
2018-07-31T00:22:28.416Z,22.88
2018-07-31T00:23:28.417Z,22.92
2018-07-31T00:24:28.411Z,22.86
2018-07-31T00:25:28.387Z,22.90
2018-07-31T00:26:28.392Z,22.85
2018-07-31T00:27:28.367Z,22.88
2018-07-31T00:28:28.355Z,22.86
2018-07-31T00:29:28.340Z,22.80
2018-07-31T00:30:28.335Z,22.83
2018-07-31T00:31:28.344Z,22.68
2018-07-31T00:32:28.312Z,22.60
2018-07-31T00:33:28.299Z,22.67
2018-07-31T00:34:28.296Z,22.62
2018-07-31T00:35:28.277Z,22.61
2018-07-31T00:36:28.292Z,22.61
2018-07-31T00:37:28.260Z,22.64
2018-07-31T00:38:28.250Z,22.57
2018-07-31T00:39:28.242Z,22.54
2018-07-31T00:40:28.229Z,22.49
2018-07-31T00:41:28.221Z,22.51
2018-07-31T00:42:28.223Z,22.40
2018-07-31T00:43:28.228Z,22.47
2018-07-31T00:44:28.207Z,22.33
2018-07-31T00:45:28.175Z,22.42
2018-07-31T00:46:28.179Z,22.45
2018-07-31T00:47:28.169Z,22.39
2018-07-31T00:48:28.150Z,22.40
2018-07-31T00:49:28.133Z,22.39
2018-07-31T00:50:28.126Z,22.43
2018-07-31T00:51:28.163Z,22.37
2018-07-31T00:52:28.133Z,22.43
2018-07-31T00:53:28.097Z,22.45
2018-07-31T00:54:28.086Z,22.54
2018-07-31T00:55:28.075Z,22.57
2018-07-31T00:56:28.060Z,22.54
2018-07-31T00:57:28.056Z,22.62
2018-07-31T00:58:28.062Z,22.52
2018-07-31T00:59:28.048Z,22.57
2018-07-31T01:00:28.017Z,22.45
2018-07-31T01:01:28.014Z,22.52
2018-07-31T01:02:28.002Z,22.51
2018-07-31T01:03:28.011Z,22.64
2018-07-31T01:04:27.992Z,22.55
2018-07-31T01:05:27.970Z,22.55
2018-07-31T01:06:27.956Z,22.52
2018-07-31T01:07:27.955Z,22.46
2018-07-31T01:08:27.938Z,22.40
2018-07-31T01:09:27.944Z,22.37
2018-07-31T01:10:27.918Z,22.36
2018-07-31T01:11:27.906Z,22.27
2018-07-31T01:12:27.896Z,22.31
2018-07-31T01:13:27.889Z,22.25
2018-07-31T01:14:27.889Z,22.22
2018-07-31T01:15:27.865Z,22.21
2018-07-31T01:16:27.856Z,22.21
2018-07-31T01:17:27.849Z,22.24
2018-07-31T01:18:27.836Z,22.22
2018-07-31T01:19:27.845Z,22.18
2018-07-31T01:20:27.811Z,22.18
2018-07-31T01:21:27.821Z,22.20
2018-07-31T01:22:27.802Z,22.15
2018-07-31T01:23:27.780Z,22.15
2018-07-31T01:24:27.775Z,22.18
2018-07-31T01:25:27.769Z,22.15
2018-07-31T01:26:27.784Z,22.14
2018-07-31T01:27:27.741Z,22.17
2018-07-31T01:28:27.730Z,22.15
2018-07-31T01:29:27.740Z,22.09
2018-07-31T01:30:27.714Z,22.06
2018-07-31T01:31:27.695Z,22.12
2018-07-31T01:32:27.737Z,22.07
2018-07-31T01:33:27.679Z,22.09
2018-07-31T01:34:27.667Z,22.06
2018-07-31T01:35:27.658Z,22.09
2018-07-31T01:36:27.645Z,22.18
2018-07-31T01:37:27.635Z,22.12
2018-07-31T01:38:27.640Z,22.10
2018-07-31T01:39:27.619Z,22.14
2018-07-31T01:40:27.623Z,22.14
2018-07-31T01:41:27.597Z,22.05
2018-07-31T01:42:27.587Z,22.02
2018-07-31T01:43:27.575Z,22.03
2018-07-31T01:44:27.568Z,21.99
2018-07-31T01:45:27.553Z,21.98
2018-07-31T01:46:27.552Z,22.00
2018-07-31T01:47:27.545Z,22.15
2018-07-31T01:48:27.522Z,22.03
2018-07-31T01:49:27.523Z,22.10
2018-07-31T01:50:27.494Z,22.09
2018-07-31T01:51:27.483Z,22.12
2018-07-31T01:52:27.503Z,22.03
2018-07-31T01:53:27.485Z,22.12
2018-07-31T01:54:27.458Z,22.10
2018-07-31T01:55:27.443Z,22.12
2018-07-31T01:56:27.439Z,21.96
2018-07-31T01:57:27.448Z,22.02
2018-07-31T01:58:27.411Z,22.02
2018-07-31T01:59:27.402Z,22.09
2018-07-31T02:00:27.397Z,22.17
2018-07-31T02:01:27.386Z,22.03
2018-07-31T02:02:27.394Z,22.17
2018-07-31T02:03:27.391Z,22.15
2018-07-31T02:04:27.357Z,22.14
2018-07-31T02:05:27.345Z,22.21
2018-07-31T02:06:27.335Z,22.24
2018-07-31T02:07:27.321Z,22.25
2018-07-31T02:08:27.327Z,22.18
2018-07-31T02:09:27.318Z,22.18
2018-07-31T02:10:27.304Z,22.14
2018-07-31T02:11:27.276Z,22.17
2018-07-31T02:12:27.265Z,22.15
2018-07-31T02:13:27.253Z,22.10
2018-07-31T02:14:27.276Z,22.18
2018-07-31T02:15:27.232Z,22.07
2018-07-31T02:16:27.225Z,22.14
2018-07-31T02:17:27.256Z,22.15
2018-07-31T02:18:27.209Z,22.10
2018-07-31T02:19:27.191Z,22.20
2018-07-31T02:20:27.194Z,22.09
2018-07-31T02:21:27.169Z,22.09
2018-07-31T02:22:27.170Z,22.09
2018-07-31T02:23:27.151Z,22.14
2018-07-31T02:24:27.141Z,22.14
2018-07-31T02:25:27.152Z,22.03
2018-07-31T02:26:27.135Z,22.03
2018-07-31T02:27:27.106Z,22.05
2018-07-31T02:28:27.133Z,22.05
2018-07-31T02:29:27.087Z,21.96
2018-07-31T02:30:27.090Z,22.00
2018-07-31T02:31:27.072Z,22.03
2018-07-31T02:32:27.048Z,21.99
2018-07-31T02:33:27.059Z,22.00
2018-07-31T02:34:27.038Z,21.99
2018-07-31T02:35:27.048Z,21.91
2018-07-31T02:36:27.022Z,22.03
2018-07-31T02:37:27.001Z,21.94
2018-07-31T02:38:26.988Z,21.91
2018-07-31T02:39:26.984Z,21.94
2018-07-31T02:40:26.994Z,21.94
2018-07-31T02:41:26.952Z,21.88
2018-07-31T02:42:26.968Z,21.91
2018-07-31T02:43:26.941Z,21.83
2018-07-31T02:44:26.928Z,21.80
2018-07-31T02:45:26.953Z,21.79
2018-07-31T02:46:26.902Z,21.75
2018-07-31T02:47:26.895Z,21.72
2018-07-31T02:48:26.886Z,21.72
2018-07-31T02:49:26.880Z,21.72
2018-07-31T02:50:26.880Z,21.68
2018-07-31T02:51:47.874Z,21.61
2018-07-31T02:52:26.841Z,21.72
2018-07-31T02:53:26.837Z,21.69
2018-07-31T02:54:26.818Z,21.71
2018-07-31T02:55:26.812Z,21.61
2018-07-31T02:56:26.827Z,21.64
2018-07-31T02:57:26.797Z,21.53
2018-07-31T02:58:26.784Z,21.47
2018-07-31T02:59:26.768Z,21.52
2018-07-31T03:00:26.754Z,21.59
2018-07-31T03:01:26.745Z,21.56
2018-07-31T03:02:26.755Z,21.56
2018-07-31T03:03:26.733Z,21.50
2018-07-31T03:04:26.712Z,21.44
2018-07-31T03:05:26.729Z,21.47
2018-07-31T03:06:26.696Z,21.53
2018-07-31T03:07:26.697Z,21.44
2018-07-31T03:08:26.688Z,21.46
2018-07-31T03:09:26.662Z,21.44
2018-07-31T03:10:26.665Z,21.40
2018-07-31T03:11:26.636Z,21.42
2018-07-31T03:12:26.644Z,21.28
2018-07-31T03:13:26.623Z,21.34
2018-07-31T03:14:26.617Z,21.38
2018-07-31T03:15:26.590Z,21.31
2018-07-31T03:16:26.583Z,21.22
2018-07-31T03:17:26.590Z,21.32
2018-07-31T03:18:26.560Z,21.24
2018-07-31T03:19:26.560Z,21.31
2018-07-31T03:20:26.553Z,21.22
2018-07-31T03:21:26.528Z,21.27
2018-07-31T03:22:26.520Z,21.17
2018-07-31T03:23:26.522Z,21.19
2018-07-31T03:24:26.496Z,21.24
2018-07-31T03:25:26.481Z,21.21
2018-07-31T03:26:26.477Z,21.25
2018-07-31T03:27:26.456Z,21.21
2018-07-31T03:28:26.466Z,21.24
2018-07-31T03:29:26.442Z,21.16
2018-07-31T03:30:26.430Z,21.22
2018-07-31T03:31:26.419Z,21.24
2018-07-31T03:32:26.410Z,21.21
2018-07-31T03:33:26.424Z,21.17
2018-07-31T03:34:26.390Z,21.17
2018-07-31T03:35:26.399Z,21.25
2018-07-31T03:36:26.386Z,21.27
2018-07-31T03:37:26.347Z,21.21
2018-07-31T03:38:26.342Z,21.25
2018-07-31T03:39:26.332Z,21.19
2018-07-31T03:40:26.337Z,21.22
2018-07-31T03:41:26.312Z,21.21
2018-07-31T03:42:26.302Z,21.10
2018-07-31T03:43:26.319Z,21.12
2018-07-31T03:44:26.276Z,21.09
2018-07-31T03:45:26.277Z,21.09
2018-07-31T03:46:26.255Z,21.01
2018-07-31T03:47:26.248Z,20.97
2018-07-31T03:48:26.232Z,20.98
2018-07-31T03:49:26.216Z,21.03
2018-07-31T03:50:26.246Z,20.97
2018-07-31T03:51:26.198Z,20.92
2018-07-31T03:52:26.188Z,20.94
2018-07-31T03:53:26.188Z,20.95
2018-07-31T03:54:26.179Z,20.91
2018-07-31T03:55:26.173Z,20.97
2018-07-31T03:56:26.209Z,20.94
2018-07-31T03:57:26.144Z,20.95
2018-07-31T03:58:26.117Z,20.94
2018-07-31T03:59:26.107Z,20.97
2018-07-31T04:00:26.110Z,20.94
2018-07-31T04:01:26.098Z,20.97
2018-07-31T04:02:26.098Z,20.97
2018-07-31T04:03:26.063Z,20.95
2018-07-31T04:04:26.058Z,20.97
2018-07-31T04:05:26.058Z,20.94
2018-07-31T04:06:26.056Z,20.95
2018-07-31T04:07:26.045Z,20.94
2018-07-31T04:08:26.014Z,20.87
2018-07-31T04:09:25.994Z,20.85
2018-07-31T04:10:25.982Z,20.79
2018-07-31T04:11:25.976Z,20.80
2018-07-31T04:12:25.976Z,20.84
2018-07-31T04:13:25.972Z,20.84
2018-07-31T04:14:25.941Z,20.87
2018-07-31T04:15:25.941Z,20.79
2018-07-31T04:16:25.929Z,20.89
2018-07-31T04:17:25.953Z,20.89
2018-07-31T04:18:25.902Z,20.97
2018-07-31T04:19:25.883Z,20.79
2018-07-31T04:20:25.877Z,20.85
2018-07-31T04:21:25.868Z,20.79
2018-07-31T04:22:25.859Z,20.92
2018-07-31T04:23:25.886Z,20.95
2018-07-31T04:24:25.854Z,20.91
2018-07-31T04:25:25.820Z,20.91
2018-07-31T04:26:25.812Z,20.92
2018-07-31T04:27:25.805Z,20.91
2018-07-31T04:28:25.811Z,20.97
2018-07-31T04:29:25.775Z,20.95
2018-07-31T04:30:25.764Z,21.07
2018-07-31T04:31:25.750Z,21.21
2018-07-31T04:32:25.745Z,21.34
2018-07-31T04:33:25.729Z,21.17
2018-07-31T04:34:25.753Z,21.35
2018-07-31T04:35:25.708Z,21.32
2018-07-31T04:36:25.721Z,21.43
2018-07-31T04:37:25.686Z,21.44
2018-07-31T04:38:25.676Z,21.61
2018-07-31T04:39:25.675Z,21.64
2018-07-31T04:40:25.674Z,21.75
2018-07-31T04:41:25.658Z,21.91
2018-07-31T04:42:25.658Z,22.00
2018-07-31T04:43:25.616Z,22.09
2018-07-31T04:44:25.612Z,22.14
2018-07-31T04:45:25.611Z,22.22
2018-07-31T04:46:25.584Z,22.33
2018-07-31T04:47:25.582Z,22.31
2018-07-31T04:48:25.569Z,22.24
2018-07-31T04:49:25.555Z,22.17
2018-07-31T04:50:25.615Z,22.20
2018-07-31T04:51:25.534Z,22.15
2018-07-31T04:52:25.525Z,22.17
2018-07-31T04:53:25.515Z,22.05
2018-07-31T04:54:25.505Z,21.92
2018-07-31T04:55:25.507Z,21.99
2018-07-31T04:56:25.483Z,21.86
2018-07-31T04:57:25.474Z,21.91
2018-07-31T04:58:25.461Z,21.88
2018-07-31T04:59:25.466Z,21.82
2018-07-31T05:00:25.455Z,21.79
2018-07-31T05:01:25.428Z,21.71
2018-07-31T05:02:25.415Z,21.79
2018-07-31T05:03:25.406Z,21.72
2018-07-31T05:04:25.401Z,21.75
2018-07-31T05:05:25.400Z,21.80
2018-07-31T05:06:25.382Z,21.91
2018-07-31T05:07:25.363Z,21.88
2018-07-31T05:08:25.350Z,21.86
2018-07-31T05:09:25.346Z,21.99
2018-07-31T05:10:25.360Z,22.15
2018-07-31T05:11:25.329Z,22.03
2018-07-31T05:12:25.308Z,22.09
2018-07-31T05:13:25.308Z,22.12
2018-07-31T05:14:25.293Z,22.18
2018-07-31T05:15:25.271Z,22.10
2018-07-31T05:16:25.279Z,22.10
2018-07-31T05:17:25.258Z,22.17
2018-07-31T05:18:25.296Z,22.18
2018-07-31T05:19:25.236Z,22.10
2018-07-31T05:20:25.220Z,22.15
2018-07-31T05:21:25.225Z,22.15
2018-07-31T05:22:25.203Z,22.17
2018-07-31T05:23:25.185Z,22.14
2018-07-31T05:24:25.176Z,22.15
2018-07-31T05:25:25.166Z,22.24
2018-07-31T05:26:25.174Z,22.21
2018-07-31T05:27:25.161Z,22.28
2018-07-31T05:28:25.135Z,22.31
2018-07-31T05:29:25.120Z,22.39
2018-07-31T05:30:25.116Z,22.35
2018-07-31T05:31:25.103Z,22.42
2018-07-31T05:32:25.150Z,22.46
2018-07-31T05:33:25.076Z,22.47
2018-07-31T05:34:25.066Z,22.62
2018-07-31T05:35:25.058Z,22.65
2018-07-31T05:36:25.041Z,22.55
2018-07-31T05:37:25.048Z,22.61
2018-07-31T05:38:25.025Z,22.70
2018-07-31T05:39:25.022Z,22.67
2018-07-31T05:40:24.999Z,22.65
2018-07-31T05:41:24.993Z,22.68
2018-07-31T05:42:24.979Z,22.64
2018-07-31T05:43:24.980Z,22.70
2018-07-31T05:44:24.958Z,22.64
2018-07-31T05:45:24.945Z,22.72
2018-07-31T05:46:24.939Z,22.80
2018-07-31T05:47:26.920Z,22.88
2018-07-31T05:48:29.910Z,22.86
2018-07-31T05:49:24.939Z,22.94
2018-07-31T05:50:24.904Z,23.02
2018-07-31T05:51:24.909Z,23.10
2018-07-31T05:52:24.892Z,23.10
2018-07-31T05:53:24.857Z,23.23
2018-07-31T05:54:24.849Z,23.19
2018-07-31T05:55:24.858Z,23.27
2018-07-31T05:56:24.830Z,23.38
2018-07-31T05:57:24.860Z,23.39
2018-07-31T05:58:24.827Z,23.35
2018-07-31T05:59:24.810Z,23.35
2018-07-31T06:00:24.814Z,23.39
2018-07-31T06:01:24.777Z,23.23
2018-07-31T06:02:24.794Z,23.23
2018-07-31T06:03:24.774Z,23.27
2018-07-31T06:04:24.748Z,23.28
2018-07-31T06:05:24.729Z,23.28
2018-07-31T06:06:24.725Z,23.28
2018-07-31T06:07:24.725Z,23.19
2018-07-31T06:08:26.450Z,23.20
2018-07-31T06:09:24.702Z,23.28
2018-07-31T06:10:24.710Z,23.23
2018-07-31T06:11:24.740Z,23.32
2018-07-31T06:12:24.678Z,23.19
2018-07-31T06:13:26.147Z,23.22
2018-07-31T06:14:24.714Z,23.36
2018-07-31T06:15:24.666Z,23.38
2018-07-31T06:16:24.641Z,23.40
2018-07-31T06:17:24.833Z,23.35
2018-07-31T06:18:24.630Z,23.50
2018-07-31T06:19:24.619Z,23.39
2018-07-31T06:20:24.615Z,23.33
2018-07-31T06:21:24.575Z,23.31
2018-07-31T06:22:24.576Z,23.46
2018-07-31T06:23:24.569Z,23.43
2018-07-31T06:24:24.574Z,23.35
2018-07-31T06:25:24.525Z,23.48
2018-07-31T06:26:24.510Z,23.46
2018-07-31T06:27:24.494Z,23.39
2018-07-31T06:28:24.509Z,23.38
2018-07-31T06:29:24.477Z,23.38
2018-07-31T06:30:24.492Z,23.39
2018-07-31T06:31:24.485Z,23.43
2018-07-31T06:32:24.487Z,23.43
2018-07-31T06:33:24.486Z,23.43
2018-07-31T06:34:24.543Z,23.42
2018-07-31T06:35:27.180Z,23.53
2018-07-31T06:36:24.442Z,23.58
2018-07-31T06:37:24.434Z,23.63
2018-07-31T06:38:24.409Z,23.61
2018-07-31T06:39:24.381Z,23.66
2018-07-31T06:40:26.984Z,23.68
2018-07-31T06:41:26.251Z,23.73
2018-07-31T06:42:58.442Z,23.83
2018-07-31T06:44:24.999Z,23.91
2018-07-31T06:45:24.328Z,23.87
2018-07-31T06:46:24.330Z,23.98
2018-07-31T06:47:24.332Z,24.03
2018-07-31T06:48:24.308Z,24.10
2018-07-31T06:49:24.487Z,23.95
2018-07-31T06:50:24.269Z,23.95
2018-07-31T06:51:24.270Z,23.91
2018-07-31T06:52:24.288Z,23.91
2018-07-31T06:53:24.255Z,24.06
2018-07-31T06:54:24.228Z,24.09
2018-07-31T06:55:24.224Z,24.10
2018-07-31T06:56:24.225Z,24.16
2018-07-31T06:57:24.217Z,24.18
2018-07-31T06:58:24.237Z,24.31
2018-07-31T06:59:24.177Z,24.47
2018-07-31T07:00:24.166Z,24.47
2018-07-31T07:01:24.171Z,24.42
2018-07-31T07:02:24.159Z,24.57
2018-07-31T07:03:24.127Z,24.60
2018-07-31T07:04:24.142Z,24.60
2018-07-31T07:05:24.114Z,24.62
2018-07-31T07:06:24.095Z,24.57
2018-07-31T07:07:24.114Z,24.69
2018-07-31T07:08:24.085Z,24.61
2018-07-31T07:09:24.144Z,24.52
2018-07-31T07:10:24.081Z,24.55
2018-07-31T07:11:24.047Z,24.61
2018-07-31T07:12:24.036Z,24.81
2018-07-31T07:13:24.039Z,24.96
2018-07-31T07:14:24.034Z,24.93
2018-07-31T07:15:24.036Z,25.05
2018-07-31T07:16:23.992Z,25.13
2018-07-31T07:17:24.020Z,25.13
2018-07-31T07:18:24.008Z,25.25
2018-07-31T07:19:23.981Z,25.45
2018-07-31T07:20:23.955Z,25.43
2018-07-31T07:21:23.964Z,25.58
2018-07-31T07:22:23.935Z,25.67
2018-07-31T07:23:23.961Z,25.75
2018-07-31T07:24:23.949Z,25.70
2018-07-31T07:25:23.920Z,25.79
2018-07-31T07:26:23.906Z,25.91
2018-07-31T07:27:23.906Z,26.06
2018-07-31T07:28:23.881Z,25.97
2018-07-31T07:29:23.887Z,26.09
2018-07-31T07:30:23.879Z,26.07
2018-07-31T07:31:23.876Z,26.10
2018-07-31T07:32:23.862Z,26.13
2018-07-31T07:33:23.863Z,26.12
2018-07-31T07:34:24.843Z,26.17
2018-07-31T07:35:23.843Z,26.21
2018-07-31T07:36:23.840Z,26.23
2018-07-31T07:37:23.799Z,26.15
2018-07-31T07:38:23.787Z,26.20
2018-07-31T07:39:23.786Z,26.18
2018-07-31T07:40:23.783Z,26.18
2018-07-31T07:41:23.782Z,26.39
2018-07-31T07:42:23.800Z,26.43
2018-07-31T07:43:23.749Z,26.47
2018-07-31T07:44:23.752Z,26.45
2018-07-31T07:45:23.733Z,26.43
2018-07-31T07:46:23.723Z,26.55
2018-07-31T07:47:23.709Z,26.45
2018-07-31T07:48:23.766Z,26.51
2018-07-31T07:49:23.723Z,26.39
2018-07-31T07:50:23.692Z,26.40
2018-07-31T07:51:23.707Z,26.39
2018-07-31T07:52:23.673Z,26.43
2018-07-31T07:53:23.673Z,26.44
2018-07-31T07:54:23.696Z,26.48
2018-07-31T07:55:23.668Z,26.36
2018-07-31T07:56:23.638Z,26.33
2018-07-31T07:57:23.612Z,26.29
2018-07-31T07:58:23.608Z,26.40
2018-07-31T07:59:23.596Z,26.43
2018-07-31T08:00:23.588Z,26.58
2018-07-31T08:01:23.601Z,26.55
2018-07-31T08:02:23.580Z,26.70
2018-07-31T08:03:23.561Z,26.84
2018-07-31T08:04:23.548Z,26.81
2018-07-31T08:05:23.552Z,26.89
2018-07-31T08:06:23.540Z,27.02
2018-07-31T08:07:23.544Z,27.04
2018-07-31T08:08:23.534Z,27.13
2018-07-31T08:09:23.528Z,27.13
2018-07-31T08:10:23.506Z,27.13
2018-07-31T08:11:23.566Z,27.22
2018-07-31T08:12:23.525Z,27.41
2018-07-31T08:13:23.470Z,27.65
2018-07-31T08:14:23.469Z,27.72
2018-07-31T08:15:23.457Z,27.54
2018-07-31T08:16:23.447Z,27.41
2018-07-31T08:17:23.460Z,27.41
2018-07-31T08:18:23.435Z,27.67
2018-07-31T08:19:23.436Z,27.87
2018-07-31T08:20:23.442Z,27.94
2018-07-31T08:21:23.416Z,28.02
2018-07-31T08:22:23.420Z,28.14
2018-07-31T08:23:23.436Z,28.25
2018-07-31T08:24:23.379Z,28.40
2018-07-31T08:25:23.378Z,28.41
2018-07-31T08:26:23.369Z,28.41
2018-07-31T08:27:23.370Z,28.40
2018-07-31T08:28:23.346Z,28.43
2018-07-31T08:29:23.343Z,28.30
2018-07-31T08:30:23.357Z,28.39
2018-07-31T08:31:23.324Z,28.52
2018-07-31T08:32:23.328Z,28.70
2018-07-31T08:33:23.327Z,28.95
2018-07-31T08:34:23.366Z,29.11
2018-07-31T08:35:23.324Z,28.96
2018-07-31T08:36:23.289Z,28.98
2018-07-31T08:37:23.289Z,29.02
2018-07-31T08:38:23.270Z,29.09
2018-07-31T08:39:23.260Z,29.08
2018-07-31T08:40:23.271Z,29.23
2018-07-31T08:41:23.285Z,29.18
2018-07-31T08:42:23.255Z,29.18
2018-07-31T08:43:23.260Z,29.12
2018-07-31T08:44:23.222Z,29.27
2018-07-31T08:45:23.224Z,29.53
2018-07-31T08:46:23.203Z,29.67
2018-07-31T08:47:23.202Z,29.78
2018-07-31T08:48:23.190Z,29.76
2018-07-31T08:49:23.197Z,29.78
2018-07-31T08:50:23.193Z,29.78
2018-07-31T08:51:23.168Z,29.64
2018-07-31T08:52:23.170Z,29.76
2018-07-31T08:53:23.169Z,29.76
2018-07-31T08:54:23.166Z,29.70
2018-07-31T08:55:23.137Z,29.78
2018-07-31T08:56:23.135Z,30.07
2018-07-31T08:57:23.123Z,30.31
2018-07-31T08:58:23.116Z,30.60
2018-07-31T08:59:23.106Z,30.76
2018-07-31T09:00:23.111Z,30.58
2018-07-31T09:01:23.092Z,30.72
2018-07-31T09:02:23.081Z,31.01
2018-07-31T09:03:23.096Z,31.01
2018-07-31T09:04:23.078Z,30.98
2018-07-31T09:05:23.071Z,31.04
2018-07-31T09:06:23.072Z,31.54
2018-07-31T09:07:23.044Z,31.56
2018-07-31T09:08:23.116Z,31.44
2018-07-31T09:09:23.033Z,31.61
2018-07-31T09:10:23.050Z,31.68
2018-07-31T09:11:23.019Z,31.38
2018-07-31T09:12:23.012Z,30.91
2018-07-31T09:13:23.013Z,30.60
2018-07-31T09:14:23.020Z,30.22
2018-07-31T09:15:23.011Z,30.01
2018-07-31T09:16:22.984Z,29.95
2018-07-31T09:17:22.983Z,30.22
2018-07-31T09:18:22.974Z,30.39
2018-07-31T09:19:22.970Z,30.77
2018-07-31T09:20:22.973Z,30.64
2018-07-31T09:21:22.965Z,30.65
2018-07-31T09:22:22.998Z,30.43
2018-07-31T09:23:22.954Z,30.38
2018-07-31T09:24:22.948Z,30.42
2018-07-31T09:25:23.012Z,30.31
2018-07-31T09:26:22.951Z,29.92
2018-07-31T09:27:22.949Z,29.92
2018-07-31T09:28:22.935Z,29.89
2018-07-31T09:29:22.987Z,29.97
2018-07-31T09:30:22.928Z,30.01
2018-07-31T09:31:22.910Z,30.17
2018-07-31T09:32:22.906Z,30.19
2018-07-31T09:33:22.881Z,30.16
2018-07-31T09:34:22.874Z,30.27
2018-07-31T09:35:22.887Z,30.23
2018-07-31T09:36:22.918Z,31.04
2018-07-31T09:37:22.856Z,31.73
2018-07-31T09:38:22.845Z,31.88
2018-07-31T09:39:22.837Z,31.54
2018-07-31T09:40:22.834Z,31.16
2018-07-31T09:41:22.839Z,31.07
2018-07-31T09:42:22.831Z,31.43
2018-07-31T09:43:22.807Z,31.09
2018-07-31T09:44:22.795Z,30.80
2018-07-31T09:45:22.807Z,30.62
2018-07-31T09:46:22.790Z,30.79
2018-07-31T09:47:22.798Z,30.49
2018-07-31T09:48:22.792Z,30.79
2018-07-31T09:49:22.770Z,31.43
2018-07-31T09:50:22.768Z,31.76
2018-07-31T09:51:22.754Z,32.18
2018-07-31T09:52:22.768Z,32.21
2018-07-31T09:53:22.774Z,32.50
2018-07-31T09:54:22.795Z,32.51
2018-07-31T09:55:22.734Z,32.43
2018-07-31T09:56:22.742Z,32.66
2018-07-31T09:57:22.726Z,32.82
2018-07-31T09:58:22.721Z,33.71
2018-07-31T09:59:22.755Z,34.28
2018-07-31T10:00:22.722Z,35.07
2018-07-31T10:01:22.715Z,35.03
2018-07-31T10:02:22.701Z,34.91
2018-07-31T10:03:22.704Z,34.44
2018-07-31T10:04:22.714Z,33.71
2018-07-31T10:05:22.745Z,33.61
2018-07-31T10:06:22.687Z,33.72
2018-07-31T10:07:22.690Z,33.60
2018-07-31T10:08:22.681Z,33.69
2018-07-31T10:09:43.696Z,34.19
2018-07-31T10:10:22.680Z,34.87
2018-07-31T10:11:22.673Z,35.07
2018-07-31T10:12:22.666Z,34.70
2018-07-31T10:13:22.669Z,34.13
2018-07-31T10:14:22.680Z,34.17
2018-07-31T10:15:22.658Z,33.95
2018-07-31T10:16:22.665Z,33.06
2018-07-31T10:17:22.656Z,32.70
2018-07-31T10:18:22.760Z,33.16
2018-07-31T10:19:22.669Z,33.73
2018-07-31T10:20:22.676Z,34.70
2018-07-31T10:21:22.655Z,35.70
2018-07-31T10:22:22.651Z,35.47
2018-07-31T10:23:22.654Z,34.08
2018-07-31T10:24:22.698Z,33.90
2018-07-31T10:25:22.650Z,33.31
2018-07-31T10:26:22.658Z,32.77
2018-07-31T10:27:22.636Z,32.70
2018-07-31T10:28:22.633Z,33.39
2018-07-31T10:29:22.634Z,34.40
2018-07-31T10:30:22.637Z,35.25
2018-07-31T10:31:22.644Z,35.60
2018-07-31T10:32:22.620Z,35.28
2018-07-31T10:33:22.639Z,34.39
2018-07-31T10:34:22.620Z,34.40
2018-07-31T10:35:22.632Z,34.92
2018-07-31T10:36:22.653Z,35.53
2018-07-31T10:37:22.614Z,36.34
2018-07-31T10:38:22.618Z,36.09
2018-07-31T10:39:22.626Z,34.78
2018-07-31T10:40:22.621Z,33.69
2018-07-31T10:41:22.617Z,33.88
2018-07-31T10:42:22.608Z,33.65
2018-07-31T10:43:22.615Z,33.19
2018-07-31T10:44:22.602Z,32.81
2018-07-31T10:45:22.605Z,32.74
2018-07-31T10:46:22.619Z,32.93
2018-07-31T10:47:22.626Z,33.47
2018-07-31T10:48:22.594Z,33.39
2018-07-31T10:49:22.603Z,33.63
2018-07-31T10:50:22.608Z,33.71
2018-07-31T10:51:22.596Z,33.84
2018-07-31T10:52:22.620Z,33.95
2018-07-31T10:53:22.595Z,34.34
2018-07-31T10:54:22.585Z,34.91
2018-07-31T10:55:22.605Z,35.26
2018-07-31T10:56:22.603Z,36.03
2018-07-31T10:57:22.597Z,36.59
2018-07-31T10:58:22.602Z,36.53
2018-07-31T10:59:22.596Z,36.93
2018-07-31T11:00:22.626Z,37.05
2018-07-31T11:01:22.592Z,36.28
2018-07-31T11:02:22.610Z,36.41
2018-07-31T11:03:22.581Z,36.91
2018-07-31T11:04:22.609Z,36.71
2018-07-31T11:05:22.597Z,36.64
2018-07-31T11:06:22.625Z,36.13
2018-07-31T11:07:22.597Z,36.51
2018-07-31T11:08:22.601Z,36.98
2018-07-31T11:09:22.585Z,36.88
2018-07-31T11:10:22.602Z,36.05
2018-07-31T11:11:22.581Z,34.80
2018-07-31T11:12:22.583Z,34.58
2018-07-31T11:13:22.685Z,34.40
2018-07-31T11:14:22.582Z,34.44
2018-07-31T11:15:22.587Z,34.16
2018-07-31T11:16:22.595Z,34.21
2018-07-31T11:17:22.586Z,34.17
2018-07-31T11:18:22.604Z,33.98
2018-07-31T11:19:22.583Z,33.01
2018-07-31T11:20:22.589Z,33.01
2018-07-31T11:21:22.677Z,33.56
2018-07-31T11:22:22.586Z,33.82
2018-07-31T11:23:22.597Z,34.16
2018-07-31T11:24:22.588Z,33.66
2018-07-31T11:25:22.594Z,32.81
2018-07-31T11:26:22.585Z,32.48
2018-07-31T11:27:22.610Z,32.41
2018-07-31T11:28:22.582Z,32.75
2018-07-31T11:29:22.613Z,33.63
2018-07-31T11:30:22.580Z,34.28
2018-07-31T11:31:22.581Z,34.12
2018-07-31T11:32:22.573Z,33.98
2018-07-31T11:33:22.573Z,33.79
2018-07-31T11:34:22.570Z,33.79
2018-07-31T11:35:22.591Z,33.73
2018-07-31T11:36:22.597Z,33.72
2018-07-31T11:37:22.572Z,33.68
2018-07-31T11:38:22.602Z,33.15
2018-07-31T11:39:22.613Z,33.18
2018-07-31T11:40:22.557Z,33.76
2018-07-31T11:41:22.588Z,34.34
2018-07-31T11:42:22.559Z,34.19
2018-07-31T11:43:22.551Z,33.71
2018-07-31T11:44:22.584Z,33.18
2018-07-31T11:45:22.548Z,32.89
2018-07-31T11:46:22.549Z,33.53
2018-07-31T11:47:22.564Z,34.43
2018-07-31T11:48:22.550Z,35.09
2018-07-31T11:49:22.542Z,35.56
2018-07-31T11:50:22.563Z,35.62
2018-07-31T11:51:22.547Z,35.92
2018-07-31T11:52:22.555Z,35.40
2018-07-31T11:53:22.542Z,35.40
2018-07-31T11:54:22.546Z,35.38
2018-07-31T11:55:22.571Z,34.85
2018-07-31T11:56:22.544Z,34.31
2018-07-31T11:57:22.542Z,33.98
2018-07-31T11:58:22.539Z,33.39
2018-07-31T11:59:22.535Z,32.67
2018-07-31T12:00:22.534Z,32.25
2018-07-31T12:01:22.563Z,31.84
2018-07-31T12:02:22.548Z,31.75
2018-07-31T12:03:22.528Z,31.78
2018-07-31T12:04:22.598Z,32.22
2018-07-31T12:05:22.529Z,33.12
2018-07-31T12:06:22.532Z,33.44
2018-07-31T12:07:22.540Z,33.61
2018-07-31T12:08:22.538Z,34.09
2018-07-31T12:09:22.522Z,34.10
2018-07-31T12:10:22.523Z,33.53
2018-07-31T12:11:22.516Z,32.79
2018-07-31T12:12:22.540Z,32.15
2018-07-31T12:13:22.532Z,32.04
2018-07-31T12:14:22.524Z,32.62
2018-07-31T12:15:22.525Z,33.28
2018-07-31T12:16:22.518Z,34.00
2018-07-31T12:17:22.507Z,34.62
2018-07-31T12:18:22.540Z,34.10
2018-07-31T12:19:22.500Z,33.79
2018-07-31T12:20:22.499Z,33.65
2018-07-31T12:21:22.499Z,33.21
2018-07-31T12:22:22.496Z,32.69
2018-07-31T12:23:22.505Z,32.48
2018-07-31T12:24:22.492Z,32.74
2018-07-31T12:25:22.506Z,32.57
2018-07-31T12:26:22.487Z,32.84
2018-07-31T12:27:22.508Z,33.18
2018-07-31T12:28:22.480Z,33.61
2018-07-31T12:29:22.477Z,34.17
2018-07-31T12:30:22.510Z,34.66
2018-07-31T12:31:22.486Z,34.92
2018-07-31T12:32:22.481Z,34.92
2018-07-31T12:33:22.479Z,35.16
2018-07-31T12:34:22.468Z,35.31
2018-07-31T12:35:22.484Z,34.65
2018-07-31T12:36:22.489Z,35.03
2018-07-31T12:37:22.501Z,33.98
2018-07-31T12:38:22.476Z,34.27
2018-07-31T12:39:22.468Z,34.64
2018-07-31T12:40:22.493Z,35.09
2018-07-31T12:41:22.462Z,34.99
2018-07-31T12:42:22.470Z,34.97
2018-07-31T12:43:22.462Z,35.19
2018-07-31T12:44:22.468Z,35.09
2018-07-31T12:45:22.463Z,35.02
2018-07-31T12:46:22.482Z,35.15
2018-07-31T12:47:22.483Z,35.38
2018-07-31T12:48:22.466Z,35.56
2018-07-31T12:49:22.485Z,35.82
2018-07-31T12:50:22.473Z,35.96
2018-07-31T12:51:22.468Z,35.94
2018-07-31T12:52:22.484Z,36.32
2018-07-31T12:53:22.464Z,36.08